createdAt,value
2018-09-03T00:01:34.226Z,4.40
2018-09-03T00:04:03.255Z,3.98
2018-09-03T00:06:32.195Z,4.45
2018-09-03T00:09:01.375Z,4.25
2018-09-03T00:11:30.325Z,4.12
2018-09-03T00:13:59.520Z,4.55
2018-09-03T00:16:28.642Z,4.42
2018-09-03T00:18:57.795Z,4.80
2018-09-03T00:21:27.308Z,3.67
2018-09-03T00:23:56.355Z,3.92
2018-09-03T00:26:26.338Z,4.75
2018-09-03T00:28:55.599Z,4.20
2018-09-03T00:31:29.684Z,4.50
2018-09-03T00:34:04.101Z,4.78
2018-09-03T00:36:38.706Z,4.30
2018-09-03T00:39:13.754Z,4.12
2018-09-03T00:41:48.191Z,4.78
2018-09-03T00:44:22.458Z,4.37
2018-09-03T00:46:59.192Z,4.40
2018-09-03T00:49:28.301Z,5.03
2018-09-03T00:51:57.777Z,4.70
2018-09-03T00:54:27.067Z,4.90
2018-09-03T00:56:56.168Z,4.85
2018-09-03T00:59:25.244Z,4.55
2018-09-03T01:01:54.568Z,5.03
2018-09-03T01:04:23.926Z,4.67
2018-09-03T01:06:52.966Z,4.55
2018-09-03T01:09:21.973Z,4.80
2018-09-03T01:11:50.915Z,4.35
2018-09-03T01:14:20.241Z,4.75
2018-09-03T01:16:49.404Z,4.05
2018-09-03T01:19:18.448Z,4.83
2018-09-03T01:21:47.301Z,5.03
2018-09-03T01:24:16.626Z,4.55
2018-09-03T01:26:45.533Z,5.00
2018-09-03T01:29:14.700Z,5.35
2018-09-03T01:31:43.816Z,4.55
2018-09-03T01:34:12.830Z,4.90
2018-09-03T01:36:41.778Z,4.87
2018-09-03T01:39:11.315Z,4.85
2018-09-03T01:41:40.745Z,4.95
2018-09-03T01:44:09.671Z,4.50
2018-09-03T01:46:38.650Z,4.50
2018-09-03T01:49:08.021Z,4.12
2018-09-03T01:51:37.006Z,4.83
2018-09-03T01:54:06.124Z,4.85
2018-09-03T01:56:35.085Z,5.47
2018-09-03T01:59:04.094Z,5.25
2018-09-03T02:01:33.804Z,4.80
2018-09-03T02:04:02.972Z,4.75
2018-09-03T02:06:31.803Z,4.97
2018-09-03T02:09:00.814Z,5.33
2018-09-03T02:11:29.479Z,5.67
2018-09-03T02:13:59.755Z,4.58
2018-09-03T02:16:29.014Z,4.90
2018-09-03T02:18:58.314Z,5.10
2018-09-03T02:21:27.199Z,4.80
2018-09-03T02:23:55.903Z,4.95
2018-09-03T02:26:25.156Z,5.03
2018-09-03T02:28:53.959Z,5.17
2018-09-03T02:31:23.309Z,5.08
2018-09-03T02:33:53.197Z,5.25
2018-09-03T02:36:22.088Z,5.28
2018-09-03T02:38:51.738Z,5.50
2018-09-03T02:41:20.566Z,5.80
2018-09-03T02:43:49.667Z,5.67
2018-09-03T02:46:19.206Z,5.50
2018-09-03T02:48:48.192Z,5.20
2018-09-03T02:51:17.504Z,5.03
2018-09-03T02:53:47.115Z,5.22
2018-09-03T02:56:16.175Z,5.33
2018-09-03T02:58:44.958Z,5.85
2018-09-03T03:01:14.291Z,5.00
2018-09-03T03:03:43.346Z,5.15
2018-09-03T03:06:12.366Z,5.20
2018-09-03T03:08:43.029Z,5.37
2018-09-03T03:11:12.116Z,5.22
2018-09-03T03:13:40.947Z,5.22
2018-09-03T03:16:10.271Z,5.80
2018-09-03T03:18:39.237Z,4.97
2018-09-03T03:21:08.030Z,4.80
2018-09-03T03:23:37.440Z,5.28
2018-09-03T03:26:07.020Z,5.33
2018-09-03T03:28:36.213Z,5.37
2018-09-03T03:31:05.531Z,5.58
2018-09-03T03:33:34.213Z,5.35
2018-09-03T03:36:03.503Z,5.03
2018-09-03T03:38:32.546Z,5.50
2018-09-03T03:41:02.079Z,5.30
2018-09-03T03:43:31.047Z,5.28
2018-09-03T03:45:59.917Z,5.00
2018-09-03T03:48:28.930Z,5.72
2018-09-03T03:50:58.013Z,5.75
2018-09-03T03:53:27.022Z,4.92
2018-09-03T03:55:56.315Z,5.25
2018-09-03T03:58:25.611Z,5.17
2018-09-03T04:00:54.905Z,5.30
2018-09-03T04:03:24.032Z,5.40
2018-09-03T04:05:53.098Z,5.10
2018-09-03T04:08:22.365Z,5.65
2018-09-03T04:10:51.275Z,5.42
2018-09-03T04:13:21.465Z,9.63
2018-09-03T04:15:50.720Z,11.70
2018-09-03T04:18:18.266Z,10.50
2018-09-03T04:20:47.268Z,6.62
2018-09-03T04:23:17.038Z,7.00
2018-09-03T04:25:45.979Z,6.30
2018-09-03T04:28:15.063Z,5.87
2018-09-03T04:30:44.383Z,6.70
2018-09-03T04:33:13.170Z,6.95
2018-09-03T04:35:41.965Z,6.83
2018-09-03T04:38:11.059Z,6.40
2018-09-03T04:40:40.008Z,5.85
2018-09-03T04:43:09.566Z,6.58
2018-09-03T04:45:38.863Z,7.42
2018-09-03T04:48:07.920Z,6.40
2018-09-03T04:50:36.842Z,6.45
2018-09-03T04:53:06.213Z,6.15
2018-09-03T04:55:35.245Z,5.83
2018-09-03T04:58:04.116Z,5.75
2018-09-03T05:00:33.505Z,6.55
2018-09-03T05:03:02.892Z,9.00
2018-09-03T05:05:32.069Z,8.28
2018-09-03T05:08:01.390Z,5.78
2018-09-03T05:10:30.195Z,6.20
2018-09-03T05:12:59.167Z,6.58
2018-09-03T05:15:28.529Z,6.92
2018-09-03T05:17:57.603Z,6.62
2018-09-03T05:20:26.786Z,7.65
2018-09-03T05:22:56.661Z,6.55
2018-09-03T05:25:25.771Z,8.23
2018-09-03T05:27:54.811Z,9.48
2018-09-03T05:30:24.203Z,9.63
2018-09-03T05:32:53.304Z,10.50
2018-09-03T05:35:22.405Z,7.20
2018-09-03T05:37:51.507Z,7.78
2018-09-03T05:40:20.594Z,7.25
2018-09-03T05:42:49.885Z,7.70
2018-09-03T05:45:19.345Z,8.43
2018-09-03T05:47:48.199Z,8.88
2018-09-03T05:50:17.833Z,10.38
2018-09-03T05:52:47.341Z,10.78
2018-09-03T05:55:16.960Z,9.05
2018-09-03T05:57:45.905Z,9.20
2018-09-03T06:00:15.319Z,9.88
2018-09-03T06:02:45.025Z,9.85
2018-09-03T06:05:14.074Z,9.90
2018-09-03T06:07:43.094Z,9.50
2018-09-03T06:10:11.788Z,10.88
2018-09-03T06:12:41.071Z,9.08
2018-09-03T06:15:10.560Z,10.13
2018-09-03T06:17:39.636Z,10.05
2018-09-03T06:20:08.521Z,10.05
2018-09-03T06:22:38.633Z,10.32
2018-09-03T06:25:08.940Z,10.15
2018-09-03T06:27:37.825Z,9.40
2018-09-03T06:30:07.067Z,10.03
2018-09-03T06:32:35.930Z,8.98
2018-09-03T06:35:05.530Z,8.90
2018-09-03T06:37:35.835Z,9.65
2018-09-03T06:40:05.031Z,9.28
2018-09-03T06:42:33.999Z,8.13
2018-09-03T06:45:03.258Z,8.55
2018-09-03T06:47:32.159Z,8.75
2018-09-03T06:50:01.326Z,8.38
2018-09-03T06:52:30.473Z,7.70
2018-09-03T06:54:59.354Z,9.28
2018-09-03T06:57:28.367Z,7.28
2018-09-03T06:59:57.527Z,5.15
2018-09-03T07:02:26.791Z,4.90
2018-09-03T07:04:56.570Z,3.92
2018-09-03T07:07:25.987Z,4.50
2018-09-03T07:09:55.171Z,5.10
2018-09-03T07:12:23.908Z,4.95
2018-09-03T07:14:53.090Z,4.22
2018-09-03T07:17:22.527Z,4.00
2018-09-03T07:19:51.642Z,4.80
2018-09-03T07:22:21.174Z,4.37
2018-09-03T07:24:50.064Z,4.20
2018-09-03T07:27:19.350Z,3.52
2018-09-03T07:29:48.540Z,4.55
2018-09-03T07:32:17.725Z,4.30
2018-09-03T07:34:47.569Z,4.67
2018-09-03T07:37:17.093Z,3.83
2018-09-03T07:39:46.125Z,3.60
2018-09-03T07:42:15.073Z,4.30
2018-09-03T07:44:44.659Z,4.05
2018-09-03T07:47:13.573Z,3.20
2018-09-03T07:49:42.244Z,3.92
2018-09-03T07:52:11.792Z,3.83
2018-09-03T07:54:41.275Z,3.85
2018-09-03T07:57:10.165Z,3.58
2018-09-03T07:59:39.383Z,4.15
2018-09-03T08:02:08.655Z,3.72
2018-09-03T08:04:37.627Z,3.20
2018-09-03T08:07:06.846Z,3.10
2018-09-03T08:09:35.827Z,3.58
2018-09-03T08:12:04.583Z,3.83
2018-09-03T08:14:33.707Z,4.17
2018-09-03T08:17:02.790Z,3.05
2018-09-03T08:19:31.927Z,3.25
2018-09-03T08:22:04.148Z,3.33
2018-09-03T08:24:33.201Z,3.17
2018-09-03T08:27:02.234Z,2.83
2018-09-03T08:29:31.491Z,3.00
2018-09-03T08:32:00.505Z,2.50
2018-09-03T08:34:30.076Z,2.62
2018-09-03T08:37:01.478Z,3.08
2018-09-03T08:39:30.523Z,2.80
2018-09-03T08:42:03.019Z,2.80
2018-09-03T08:44:31.853Z,2.30
2018-09-03T08:47:01.063Z,3.22
2018-09-03T08:49:30.408Z,2.80
2018-09-03T08:51:59.270Z,2.37
2018-09-03T08:54:30.409Z,3.02
2018-09-03T08:56:59.515Z,2.12
2018-09-03T08:59:28.489Z,2.70
2018-09-03T09:01:57.309Z,2.75
2018-09-03T09:04:26.704Z,3.12
2018-09-03T09:06:55.524Z,3.12
2018-09-03T09:09:24.503Z,3.05
2018-09-03T09:11:53.907Z,3.33
2018-09-03T09:14:22.785Z,3.10
2018-09-03T09:16:51.811Z,2.87
2018-09-03T09:19:21.042Z,2.62
2018-09-03T09:21:50.190Z,2.52
2018-09-03T09:24:19.317Z,2.60
2018-09-03T09:26:48.626Z,4.42
2018-09-03T09:29:17.531Z,2.27
2018-09-03T09:31:46.653Z,2.00
2018-09-03T09:34:16.084Z,3.22
2018-09-03T09:36:45.392Z,3.00
2018-09-03T09:39:14.697Z,2.80
2018-09-03T09:41:43.564Z,3.45
2018-09-03T09:44:12.443Z,3.42
2018-09-03T09:46:41.434Z,3.17
2018-09-03T09:49:10.636Z,2.50
2018-09-03T09:51:39.644Z,3.00
2018-09-03T09:54:08.650Z,2.92
2018-09-03T09:56:38.615Z,3.60
2018-09-03T09:59:08.483Z,2.87
2018-09-03T10:01:39.183Z,3.83
2018-09-03T10:04:08.575Z,2.98
2018-09-03T10:06:37.903Z,2.37
2018-09-03T10:09:08.505Z,2.90
2018-09-03T10:11:38.471Z,3.05
2018-09-03T10:14:07.741Z,3.25
2018-09-03T10:16:36.580Z,2.92
2018-09-03T10:19:06.175Z,3.52
2018-09-03T10:21:35.293Z,3.95
2018-09-03T10:24:06.361Z,3.15
2018-09-03T10:26:35.716Z,3.90
2018-09-03T10:29:05.005Z,3.40
2018-09-03T10:31:34.554Z,4.12
2018-09-03T10:34:03.623Z,3.67
2018-09-03T10:36:32.755Z,4.00
2018-09-03T10:39:01.962Z,3.55
2018-09-03T10:41:30.874Z,3.42
2018-09-03T10:43:59.978Z,3.55
2018-09-03T10:46:29.367Z,4.22
2018-09-03T10:48:58.494Z,5.55
2018-09-03T10:51:27.603Z,4.30
2018-09-03T10:53:56.820Z,4.00
2018-09-03T10:56:25.900Z,4.42
2018-09-03T10:58:54.695Z,5.47
2018-09-03T11:01:23.690Z,5.90
2018-09-03T11:03:52.410Z,5.00
2018-09-03T11:06:21.267Z,4.03
2018-09-03T11:08:50.818Z,6.70
2018-09-03T11:11:19.749Z,5.17
2018-09-03T11:13:48.763Z,7.35
2018-09-03T11:16:17.944Z,4.25
2018-09-03T11:18:46.750Z,5.50
2018-09-03T11:21:15.976Z,4.72
2018-09-03T11:23:45.272Z,5.30
2018-09-03T11:26:14.490Z,4.22
2018-09-03T11:28:43.787Z,3.45
2018-09-03T11:31:13.274Z,5.45
2018-09-03T11:33:42.367Z,4.20
2018-09-03T11:36:11.532Z,3.98
2018-09-03T11:38:40.877Z,4.55
2018-09-03T11:41:10.050Z,3.95
2018-09-03T11:43:38.731Z,4.28
2018-09-03T11:46:08.162Z,4.40
2018-09-03T11:48:37.335Z,3.77
2018-09-03T11:51:06.456Z,4.22
2018-09-03T11:53:35.579Z,4.35
2018-09-03T11:56:04.658Z,4.45
2018-09-03T11:58:33.767Z,4.58
2018-09-03T12:01:03.766Z,4.70
2018-09-03T12:03:32.938Z,4.90
2018-09-03T12:06:02.140Z,4.95
2018-09-03T12:08:31.211Z,4.90
2018-09-03T12:11:01.297Z,5.80
2018-09-03T12:13:30.361Z,4.85
2018-09-03T12:16:06.621Z,4.45
2018-09-03T12:18:35.768Z,6.58
2018-09-03T12:21:05.252Z,5.95
2018-09-03T12:23:34.767Z,6.62
2018-09-03T12:26:04.439Z,6.05
2018-09-03T12:28:33.839Z,6.20
2018-09-03T12:31:03.066Z,6.00
2018-09-03T12:33:32.075Z,6.62
2018-09-03T12:36:01.340Z,5.80
2018-09-03T12:38:31.203Z,6.30
2018-09-03T12:41:00.235Z,6.03
2018-09-03T12:43:29.461Z,5.92
2018-09-03T12:46:07.782Z,6.83
2018-09-03T12:48:37.068Z,6.28
2018-09-03T12:51:06.934Z,5.15
2018-09-03T12:53:36.561Z,6.37
2018-09-03T12:56:05.734Z,6.10
2018-09-03T12:58:34.936Z,7.87
2018-09-03T13:01:05.235Z,8.80
2018-09-03T13:03:34.178Z,10.93
2018-09-03T13:06:03.112Z,8.20
2018-09-03T13:08:33.035Z,6.55
2018-09-03T13:11:01.900Z,7.28
2018-09-03T13:13:30.751Z,8.80
2018-09-03T13:15:59.827Z,9.25
2018-09-03T13:18:28.995Z,5.70
2018-09-03T13:20:57.994Z,7.47
2018-09-03T13:23:27.370Z,8.35
2018-09-03T13:25:56.774Z,7.40
2018-09-03T13:28:25.702Z,7.75
2018-09-03T13:30:54.981Z,5.87
2018-09-03T13:33:24.173Z,7.87
2018-09-03T13:35:53.263Z,7.90
2018-09-03T13:38:22.606Z,8.00
2018-09-03T13:40:51.856Z,7.60
2018-09-03T13:43:20.785Z,6.95
2018-09-03T13:45:50.195Z,6.70
2018-09-03T13:48:19.316Z,6.83
2018-09-03T13:50:48.906Z,6.90
2018-09-03T13:53:17.875Z,6.62
2018-09-03T13:55:46.787Z,9.98
2018-09-03T13:58:15.685Z,9.45
2018-09-03T14:00:45.323Z,7.90
2018-09-03T14:03:14.577Z,7.60
2018-09-03T14:05:43.487Z,7.08
2018-09-03T14:08:13.003Z,7.78
2018-09-03T14:10:42.137Z,8.53
2018-09-03T14:13:11.999Z,7.95
2018-09-03T14:15:48.456Z,9.23
2018-09-03T14:18:17.351Z,8.98
2018-09-03T14:20:46.387Z,6.90
2018-09-03T14:23:15.771Z,6.53
2018-09-03T14:25:44.843Z,6.25
2018-09-03T14:28:13.656Z,8.50
2018-09-03T14:30:42.713Z,8.23
2018-09-03T14:33:11.757Z,6.58
2018-09-03T14:35:41.144Z,6.87
2018-09-03T14:38:10.771Z,5.87
2018-09-03T14:40:40.560Z,5.87
2018-09-03T14:45:45.930Z,5.20
2018-09-03T14:48:14.822Z,4.90
2018-09-03T14:50:43.712Z,5.78
2018-09-03T14:53:13.370Z,4.95
2018-09-03T14:55:42.496Z,4.75
2018-09-03T14:58:11.974Z,4.97
2018-09-03T15:00:41.256Z,4.90
2018-09-03T15:03:10.226Z,5.30
2018-09-03T15:05:39.210Z,4.78
2018-09-03T15:08:08.781Z,5.10
2018-09-03T15:10:37.582Z,6.28
2018-09-03T15:13:06.495Z,4.20
2018-09-03T15:15:35.291Z,3.92
2018-09-03T15:18:04.354Z,4.15
2018-09-03T15:20:33.822Z,3.85
2018-09-03T15:23:03.115Z,4.17
2018-09-03T15:25:31.934Z,5.22
2018-09-03T15:28:00.869Z,3.98
2018-09-03T15:30:30.194Z,5.70
2018-09-03T15:32:59.280Z,4.85
2018-09-03T15:35:28.477Z,5.15
2018-09-03T15:37:57.721Z,4.03
2018-09-03T15:40:26.746Z,4.40
2018-09-03T15:42:55.601Z,4.60
2018-09-03T15:45:24.948Z,4.25
2018-09-03T15:47:53.903Z,5.08
2018-09-03T15:50:23.030Z,4.87
2018-09-03T15:52:51.991Z,5.12
2018-09-03T15:55:20.724Z,5.15
2018-09-03T15:57:50.141Z,6.30
2018-09-03T16:00:19.393Z,6.03
2018-09-03T16:02:48.249Z,7.87
2018-09-03T16:05:17.121Z,6.17
2018-09-03T16:07:46.968Z,6.05
2018-09-03T16:10:16.114Z,5.83
2018-09-03T16:12:45.033Z,5.53
2018-09-03T16:15:14.059Z,5.35
2018-09-03T16:17:42.786Z,6.33
2018-09-03T16:20:11.594Z,8.73
2018-09-03T16:22:41.227Z,7.10
2018-09-03T16:25:10.254Z,9.73
2018-09-03T16:27:39.227Z,6.92
2018-09-03T16:30:09.356Z,5.95
2018-09-03T16:32:38.240Z,6.53
2018-09-03T16:35:07.503Z,6.22
2018-09-03T16:37:36.658Z,5.70
2018-09-03T16:40:05.980Z,7.00
2018-09-03T16:42:34.998Z,8.05
2018-09-03T16:45:04.563Z,7.08
2018-09-03T16:47:33.603Z,6.35
2018-09-03T16:50:03.308Z,7.17
2018-09-03T16:52:32.442Z,9.35
2018-09-03T16:55:01.524Z,9.60
2018-09-03T16:57:30.620Z,8.20
2018-09-03T16:59:59.955Z,7.58
2018-09-03T17:02:28.799Z,8.53
2018-09-03T17:04:57.703Z,9.90
2018-09-03T17:07:26.590Z,8.28
2018-09-03T17:09:55.411Z,9.45
2018-09-03T17:12:24.911Z,9.90
2018-09-03T17:14:53.871Z,10.95
2018-09-03T17:17:23.074Z,10.43
2018-09-03T17:19:52.578Z,11.30
2018-09-03T17:22:22.266Z,13.80
2018-09-03T17:24:51.430Z,18.73
2018-09-03T17:27:20.267Z,11.95
2018-09-03T17:29:51.075Z,9.08
2018-09-03T17:32:20.179Z,8.80
2018-09-03T17:34:49.131Z,12.00
2018-09-03T17:37:18.423Z,10.00
2018-09-03T17:39:47.498Z,10.78
2018-09-03T17:42:16.618Z,10.72
2018-09-03T17:44:45.698Z,11.80
2018-09-03T17:47:14.606Z,9.20
2018-09-03T17:49:43.540Z,12.88
2018-09-03T17:52:12.935Z,10.78
2018-09-03T17:54:41.790Z,11.70
2018-09-03T17:57:10.570Z,11.88
2018-09-03T17:59:39.852Z,12.90
2018-09-03T18:02:08.782Z,12.45
2018-09-03T18:04:37.661Z,13.15
2018-09-03T18:07:07.048Z,11.40
2018-09-03T18:09:36.075Z,11.35
2018-09-03T18:12:05.235Z,11.08
2018-09-03T18:14:34.914Z,11.35
2018-09-03T18:17:03.747Z,12.90
2018-09-03T18:19:32.631Z,15.58
2018-09-03T18:22:02.150Z,14.83
2018-09-03T18:24:31.167Z,14.60
2018-09-03T18:26:59.979Z,13.15
2018-09-03T18:29:29.191Z,13.60
2018-09-03T18:31:58.247Z,13.53
2018-09-03T18:34:27.239Z,13.38
2018-09-03T18:36:57.038Z,12.63
2018-09-03T18:39:26.051Z,13.08
2018-09-03T18:41:55.406Z,12.10
2018-09-03T18:44:25.079Z,18.60
2018-09-03T18:46:54.360Z,17.82
2018-09-03T18:49:23.137Z,10.05
2018-09-03T18:51:52.971Z,10.53
2018-09-03T18:54:22.158Z,10.63
2018-09-03T18:56:51.050Z,10.58
2018-09-03T18:59:20.457Z,9.45
2018-09-03T19:01:49.651Z,9.48
2018-09-03T19:04:18.548Z,9.73
2018-09-03T19:06:48.126Z,10.03
2018-09-03T19:09:16.961Z,11.05
2018-09-03T19:11:45.941Z,13.70
2018-09-03T19:14:15.367Z,15.75
2018-09-03T19:16:44.231Z,11.73
2018-09-03T19:19:13.435Z,11.22
2018-09-03T19:21:42.850Z,10.28
2018-09-03T19:24:11.638Z,10.95
2018-09-03T19:26:40.306Z,11.43
2018-09-03T19:29:09.640Z,11.28
2018-09-03T19:31:38.927Z,10.53
2018-09-03T19:34:07.907Z,11.75
2018-09-03T19:36:37.084Z,11.53
2018-09-03T19:39:06.843Z,10.10
2018-09-03T19:41:35.814Z,10.40
2018-09-03T19:44:04.644Z,11.50
2018-09-03T19:46:33.883Z,10.20
2018-09-03T19:49:02.912Z,11.38
2018-09-03T19:51:32.031Z,11.30
2018-09-03T19:54:00.987Z,11.75
2018-09-03T19:56:29.889Z,12.13
2018-09-03T19:58:59.955Z,13.03
2018-09-03T20:01:28.941Z,14.98
2018-09-03T20:03:57.583Z,19.73
2018-09-03T20:06:26.822Z,16.48
2018-09-03T20:08:55.735Z,11.95
2018-09-03T20:11:25.179Z,13.68
2018-09-03T20:13:54.307Z,13.45
2018-09-03T20:16:28.096Z,16.40
2018-09-03T20:18:57.003Z,18.87
2018-09-03T20:21:25.920Z,20.25
2018-09-03T20:23:55.050Z,20.25
2018-09-03T20:26:24.080Z,20.27
2018-09-03T20:28:52.971Z,17.40
2018-09-03T20:31:21.963Z,17.00
2018-09-03T20:33:51.182Z,17.05
2018-09-03T20:36:20.157Z,14.75
2018-09-03T20:38:49.119Z,14.50
2018-09-03T20:41:18.454Z,14.03
2018-09-03T20:43:47.253Z,14.20
2018-09-03T20:46:16.360Z,15.85
2018-09-03T20:48:45.963Z,14.53
2018-09-03T20:51:14.926Z,14.38
2018-09-03T20:53:44.038Z,15.13
2018-09-03T20:56:13.609Z,15.13
2018-09-03T20:58:42.616Z,13.70
2018-09-03T21:01:11.320Z,14.98
2018-09-03T21:03:40.742Z,14.68
2018-09-03T21:06:09.719Z,15.03
2018-09-03T21:08:38.409Z,15.28
2018-09-03T21:11:07.826Z,13.80
2018-09-03T21:13:36.834Z,12.53
2018-09-03T21:16:05.808Z,13.35
2018-09-03T21:18:35.325Z,13.72
2018-09-03T21:21:04.398Z,15.23
2018-09-03T21:23:33.087Z,16.00
2018-09-03T21:26:02.095Z,16.15
2018-09-03T21:28:31.059Z,15.55
2018-09-03T21:31:00.084Z,15.23
2018-09-03T21:33:29.359Z,13.95
2018-09-03T21:35:58.343Z,14.00
2018-09-03T21:38:27.226Z,13.70
2018-09-03T21:40:56.994Z,13.68
2018-09-03T21:43:25.884Z,13.60
2018-09-03T21:45:54.594Z,13.95
2018-09-03T21:48:23.593Z,13.68
2018-09-03T21:50:53.215Z,14.50
2018-09-03T21:53:22.283Z,14.33
2018-09-03T21:55:51.852Z,15.15
2018-09-03T21:58:20.864Z,14.53
2018-09-03T22:00:49.846Z,15.63
2018-09-03T22:03:18.970Z,15.30
2018-09-03T22:05:47.928Z,16.70
2018-09-03T22:08:16.856Z,17.10
2018-09-03T22:10:46.236Z,16.55
2018-09-03T22:13:15.420Z,17.77
2018-09-03T22:15:44.335Z,16.25
2018-09-03T22:18:13.549Z,20.88
2018-09-03T22:20:42.653Z,16.65
2018-09-03T22:23:11.819Z,17.45
2018-09-03T22:25:40.879Z,18.62
2018-09-03T22:28:10.443Z,19.05
2018-09-03T22:30:39.657Z,17.27
2018-09-03T22:33:08.760Z,18.70
2018-09-03T22:35:37.714Z,18.00
2018-09-03T22:38:06.709Z,15.93
2018-09-03T22:40:36.008Z,16.52
2018-09-03T22:43:04.924Z,16.93
2018-09-03T22:45:33.996Z,18.92
2018-09-03T22:48:03.079Z,18.48
2018-09-03T22:50:31.915Z,15.20
2018-09-03T22:53:00.784Z,12.15
2018-09-03T22:55:30.242Z,14.00
2018-09-03T22:57:58.962Z,14.45
2018-09-03T23:00:28.001Z,17.05
2018-09-03T23:02:57.015Z,17.25
2018-09-03T23:05:26.278Z,17.87
2018-09-03T23:07:55.873Z,19.05
2018-09-03T23:10:25.446Z,18.40
2018-09-03T23:12:54.848Z,18.95
2018-09-03T23:15:23.804Z,19.23
2018-09-03T23:17:52.943Z,18.40
2018-09-03T23:20:21.879Z,19.35
2018-09-03T23:22:50.979Z,18.15
2018-09-03T23:25:20.328Z,17.75
2018-09-03T23:27:49.476Z,18.65
2018-09-03T23:30:18.783Z,16.23
2018-09-03T23:32:48.087Z,16.37
2018-09-03T23:35:17.075Z,17.05
2018-09-03T23:37:45.970Z,16.75
2018-09-03T23:40:14.682Z,17.80
2018-09-03T23:42:43.973Z,15.50
2018-09-03T23:45:12.809Z,16.90
2018-09-03T23:47:41.967Z,17.45
2018-09-03T23:50:10.918Z,20.65
2018-09-03T23:52:40.035Z,17.60
2018-09-03T23:55:09.356Z,19.80
2018-09-03T23:57:38.141Z,19.30
